sensor_id;sensor_type;location;lat;lon;timestamp;P1;durP1;ratioP1;P2;durP2;ratioP2
75520;SDS011;64102;48.628;9.002;2023-04-25T00:02:09;2.92;;;0.20;;
75520;SDS011;64102;48.628;9.002;2023-04-25T00:04:35;1.85;;;0.10;;
75520;SDS011;64102;48.628;9.002;2023-04-25T00:07:02;2.10;;;0.22;;
75520;SDS011;64102;48.628;9.002;2023-04-25T00:09:28;2.30;;;0.30;;
75520;SDS011;64102;48.628;9.002;2023-04-25T00:11:54;1.17;;;0.10;;
75520;SDS011;64102;48.628;9.002;2023-04-25T00:14:19;2.58;;;0.20;;
75520;SDS011;64102;48.628;9.002;2023-04-25T00:16:45;2.42;;;0.10;;
75520;SDS011;64102;48.628;9.002;2023-04-25T00:19:10;0.77;;;0.05;;
75520;SDS011;64102;48.628;9.002;2023-04-25T00:21:36;2.55;;;0.10;;
75520;SDS011;64102;48.628;9.002;2023-04-25T00:24:05;1.60;;;0.10;;
75520;SDS011;64102;48.628;9.002;2023-04-25T00:26:34;2.55;;;0.20;;
75520;SDS011;64102;48.628;9.002;2023-04-25T00:29:00;1.13;;;0.03;;
75520;SDS011;64102;48.628;9.002;2023-04-25T00:31:26;3.60;;;0.10;;
75520;SDS011;64102;48.628;9.002;2023-04-25T00:33:51;2.67;;;0.20;;
75520;SDS011;64102;48.628;9.002;2023-04-25T00:36:18;1.30;;;0.10;;
75520;SDS011;64102;48.628;9.002;2023-04-25T00:38:43;2.70;;;0.20;;
75520;SDS011;64102;48.628;9.002;2023-04-25T00:41:08;1.67;;;0.10;;
75520;SDS011;64102;48.628;9.002;2023-04-25T00:43:34;1.70;;;0.13;;
75520;SDS011;64102;48.628;9.002;2023-04-25T00:46:02;1.65;;;0.10;;
75520;SDS011;64102;48.628;9.002;2023-04-25T00:48:27;1.80;;;0.10;;
75520;SDS011;64102;48.628;9.002;2023-04-25T00:50:53;1.30;;;0.10;;
75520;SDS011;64102;48.628;9.002;2023-04-25T00:53:22;1.83;;;0.10;;
75520;SDS011;64102;48.628;9.002;2023-04-25T00:55:49;1.65;;;0.10;;
75520;SDS011;64102;48.628;9.002;2023-04-25T00:58:16;1.45;;;0.10;;
75520;SDS011;64102;48.628;9.002;2023-04-25T01:00:42;2.15;;;0.10;;
75520;SDS011;64102;48.628;9.002;2023-04-25T01:03:10;3.30;;;0.25;;
75520;SDS011;64102;48.628;9.002;2023-04-25T01:05:35;1.88;;;0.10;;
75520;SDS011;64102;48.628;9.002;2023-04-25T01:08:01;3.08;;;0.10;;
75520;SDS011;64102;48.628;9.002;2023-04-25T01:10:26;2.22;;;0.10;;
75520;SDS011;64102;48.628;9.002;2023-04-25T01:12:52;3.75;;;0.10;;
75520;SDS011;64102;48.628;9.002;2023-04-25T01:15:17;5.22;;;0.20;;
75520;SDS011;64102;48.628;9.002;2023-04-25T01:17:43;3.65;;;0.13;;
75520;SDS011;64102;48.628;9.002;2023-04-25T01:20:09;3.15;;;0.25;;
75520;SDS011;64102;48.628;9.002;2023-04-25T01:22:36;4.43;;;0.25;;
75520;SDS011;64102;48.628;9.002;2023-04-25T01:25:01;1.52;;;0.10;;
75520;SDS011;64102;48.628;9.002;2023-04-25T01:27:27;2.63;;;0.20;;
75520;SDS011;64102;48.628;9.002;2023-04-25T01:29:53;3.33;;;0.20;;
75520;SDS011;64102;48.628;9.002;2023-04-25T01:32:19;4.00;;;0.30;;
75520;SDS011;64102;48.628;9.002;2023-04-25T01:34:46;1.75;;;0.10;;
75520;SDS011;64102;48.628;9.002;2023-04-25T01:37:12;2.20;;;0.10;;
75520;SDS011;64102;48.628;9.002;2023-04-25T01:39:37;2.72;;;0.10;;
75520;SDS011;64102;48.628;9.002;2023-04-25T01:42:02;4.70;;;0.22;;
75520;SDS011;64102;48.628;9.002;2023-04-25T01:44:28;2.67;;;0.20;;
75520;SDS011;64102;48.628;9.002;2023-04-25T01:46:54;3.95;;;0.20;;
75520;SDS011;64102;48.628;9.002;2023-04-25T01:49:19;3.25;;;0.20;;
75520;SDS011;64102;48.628;9.002;2023-04-25T01:51:45;2.13;;;0.20;;
75520;SDS011;64102;48.628;9.002;2023-04-25T01:54:10;2.63;;;0.30;;
75520;SDS011;64102;48.628;9.002;2023-04-25T01:56:36;0.95;;;0.13;;
75520;SDS011;64102;48.628;9.002;2023-04-25T01:59:03;1.77;;;0.10;;
75520;SDS011;64102;48.628;9.002;2023-04-25T02:01:30;3.03;;;0.10;;
75520;SDS011;64102;48.628;9.002;2023-04-25T02:03:56;2.70;;;0.20;;
75520;SDS011;64102;48.628;9.002;2023-04-25T02:06:21;2.50;;;0.20;;
75520;SDS011;64102;48.628;9.002;2023-04-25T02:08:46;1.77;;;0.10;;
75520;SDS011;64102;48.628;9.002;2023-04-25T02:11:12;2.75;;;0.15;;
75520;SDS011;64102;48.628;9.002;2023-04-25T02:13:37;2.90;;;0.23;;
75520;SDS011;64102;48.628;9.002;2023-04-25T02:16:03;3.13;;;0.22;;
75520;SDS011;64102;48.628;9.002;2023-04-25T02:18:28;1.27;;;0.03;;
75520;SDS011;64102;48.628;9.002;2023-04-25T02:20:53;1.37;;;0.10;;
75520;SDS011;64102;48.628;9.002;2023-04-25T02:23:19;2.87;;;0.10;;
75520;SDS011;64102;48.628;9.002;2023-04-25T02:25:44;2.22;;;0.10;;
75520;SDS011;64102;48.628;9.002;2023-04-25T02:28:10;1.98;;;0.10;;
75520;SDS011;64102;48.628;9.002;2023-04-25T02:30:35;1.45;;;0.13;;
75520;SDS011;64102;48.628;9.002;2023-04-25T02:33:01;4.13;;;0.20;;
75520;SDS011;64102;48.628;9.002;2023-04-25T02:35:27;1.92;;;0.10;;
75520;SDS011;64102;48.628;9.002;2023-04-25T02:37:52;2.08;;;0.10;;
75520;SDS011;64102;48.628;9.002;2023-04-25T02:40:17;2.13;;;0.22;;
75520;SDS011;64102;48.628;9.002;2023-04-25T02:42:43;2.42;;;0.10;;
75520;SDS011;64102;48.628;9.002;2023-04-25T02:45:10;3.38;;;0.20;;
75520;SDS011;64102;48.628;9.002;2023-04-25T02:47:36;3.13;;;0.20;;
75520;SDS011;64102;48.628;9.002;2023-04-25T02:50:01;3.03;;;0.20;;
75520;SDS011;64102;48.628;9.002;2023-04-25T02:52:27;2.65;;;0.20;;
75520;SDS011;64102;48.628;9.002;2023-04-25T02:54:52;2.50;;;0.20;;
75520;SDS011;64102;48.628;9.002;2023-04-25T02:57:17;4.30;;;0.10;;
75520;SDS011;64102;48.628;9.002;2023-04-25T02:59:43;2.42;;;0.20;;
75520;SDS011;64102;48.628;9.002;2023-04-25T03:02:09;1.60;;;0.10;;
75520;SDS011;64102;48.628;9.002;2023-04-25T03:04:34;1.95;;;0.28;;
75520;SDS011;64102;48.628;9.002;2023-04-25T03:07:00;2.88;;;0.10;;
75520;SDS011;64102;48.628;9.002;2023-04-25T03:09:26;2.88;;;0.10;;
75520;SDS011;64102;48.628;9.002;2023-04-25T03:11:51;1.95;;;0.10;;
75520;SDS011;64102;48.628;9.002;2023-04-25T03:14:16;2.27;;;0.23;;
75520;SDS011;64102;48.628;9.002;2023-04-25T03:16:42;1.67;;;0.10;;
75520;SDS011;64102;48.628;9.002;2023-04-25T03:19:07;1.50;;;0.10;;
75520;SDS011;64102;48.628;9.002;2023-04-25T03:21:33;1.10;;;0.00;;
75520;SDS011;64102;48.628;9.002;2023-04-25T03:24:00;1.05;;;0.00;;
75520;SDS011;64102;48.628;9.002;2023-04-25T03:26:27;1.42;;;0.00;;
75520;SDS011;64102;48.628;9.002;2023-04-25T03:28:52;2.75;;;0.20;;
75520;SDS011;64102;48.628;9.002;2023-04-25T03:31:18;2.35;;;0.10;;
75520;SDS011;64102;48.628;9.002;2023-04-25T03:33:43;1.85;;;0.10;;
75520;SDS011;64102;48.628;9.002;2023-04-25T03:36:08;3.63;;;0.10;;
75520;SDS011;64102;48.628;9.002;2023-04-25T03:38:34;1.70;;;0.10;;
75520;SDS011;64102;48.628;9.002;2023-04-25T03:41:00;3.72;;;0.20;;
75520;SDS011;64102;48.628;9.002;2023-04-25T03:43:26;1.77;;;0.10;;
75520;SDS011;64102;48.628;9.002;2023-04-25T03:45:52;4.83;;;0.33;;
75520;SDS011;64102;48.628;9.002;2023-04-25T03:48:17;2.75;;;0.25;;
75520;SDS011;64102;48.628;9.002;2023-04-25T03:50:42;3.27;;;0.30;;
75520;SDS011;64102;48.628;9.002;2023-04-25T03:53:08;4.53;;;0.43;;
75520;SDS011;64102;48.628;9.002;2023-04-25T03:55:33;6.90;;;0.30;;
75520;SDS011;64102;48.628;9.002;2023-04-25T03:57:58;2.03;;;0.10;;
75520;SDS011;64102;48.628;9.002;2023-04-25T04:00:24;4.03;;;0.30;;
75520;SDS011;64102;48.628;9.002;2023-04-25T04:02:50;1.55;;;0.10;;
75520;SDS011;64102;48.628;9.002;2023-04-25T04:05:15;3.08;;;0.20;;
75520;SDS011;64102;48.628;9.002;2023-04-25T04:07:41;2.08;;;0.10;;
75520;SDS011;64102;48.628;9.002;2023-04-25T04:10:08;2.15;;;0.22;;
75520;SDS011;64102;48.628;9.002;2023-04-25T04:12:34;3.55;;;0.30;;
75520;SDS011;64102;48.628;9.002;2023-04-25T04:14:59;2.92;;;0.20;;
75520;SDS011;64102;48.628;9.002;2023-04-25T04:17:25;3.55;;;0.30;;
75520;SDS011;64102;48.628;9.002;2023-04-25T04:19:50;3.22;;;0.50;;
75520;SDS011;64102;48.628;9.002;2023-04-25T04:22:16;1.17;;;0.00;;
75520;SDS011;64102;48.628;9.002;2023-04-25T04:24:41;3.45;;;0.30;;
75520;SDS011;64102;48.628;9.002;2023-04-25T04:27:09;2.47;;;0.20;;
75520;SDS011;64102;48.628;9.002;2023-04-25T04:29:34;4.18;;;0.20;;
75520;SDS011;64102;48.628;9.002;2023-04-25T04:32:01;3.95;;;0.32;;
75520;SDS011;64102;48.628;9.002;2023-04-25T04:34:27;4.55;;;0.40;;
75520;SDS011;64102;48.628;9.002;2023-04-25T04:36:52;3.67;;;0.30;;
75520;SDS011;64102;48.628;9.002;2023-04-25T04:39:17;1.67;;;0.00;;
75520;SDS011;64102;48.628;9.002;2023-04-25T04:41:43;2.75;;;0.20;;
75520;SDS011;64102;48.628;9.002;2023-04-25T04:44:09;2.00;;;0.10;;
75520;SDS011;64102;48.628;9.002;2023-04-25T04:46:35;1.42;;;0.22;;
75520;SDS011;64102;48.628;9.002;2023-04-25T04:49:10;2.92;;;0.28;;
75520;SDS011;64102;48.628;9.002;2023-04-25T04:51:41;1.92;;;0.10;;
75520;SDS011;64102;48.628;9.002;2023-04-25T04:54:09;2.05;;;0.10;;
75520;SDS011;64102;48.628;9.002;2023-04-25T04:56:34;1.88;;;0.10;;
75520;SDS011;64102;48.628;9.002;2023-04-25T04:59:00;2.60;;;0.38;;
75520;SDS011;64102;48.628;9.002;2023-04-25T05:01:26;3.28;;;0.30;;
75520;SDS011;64102;48.628;9.002;2023-04-25T05:03:52;2.05;;;0.40;;
75520;SDS011;64102;48.628;9.002;2023-04-25T05:06:18;2.33;;;0.20;;
75520;SDS011;64102;48.628;9.002;2023-04-25T05:08:44;3.88;;;0.20;;
75520;SDS011;64102;48.628;9.002;2023-04-25T05:11:19;1.52;;;0.10;;
75520;SDS011;64102;48.628;9.002;2023-04-25T05:13:44;4.68;;;0.30;;
75520;SDS011;64102;48.628;9.002;2023-04-25T05:16:10;3.63;;;0.20;;
75520;SDS011;64102;48.628;9.002;2023-04-25T05:18:36;1.90;;;0.25;;
75520;SDS011;64102;48.628;9.002;2023-04-25T05:21:02;1.13;;;0.05;;
75520;SDS011;64102;48.628;9.002;2023-04-25T05:23:27;2.70;;;0.10;;
75520;SDS011;64102;48.628;9.002;2023-04-25T05:25:53;3.08;;;0.43;;
75520;SDS011;64102;48.628;9.002;2023-04-25T05:28:19;3.17;;;0.30;;
75520;SDS011;64102;48.628;9.002;2023-04-25T05:30:45;2.42;;;0.28;;
75520;SDS011;64102;48.628;9.002;2023-04-25T05:33:11;2.40;;;0.10;;
75520;SDS011;64102;48.628;9.002;2023-04-25T05:35:36;2.07;;;0.30;;
75520;SDS011;64102;48.628;9.002;2023-04-25T05:38:01;1.92;;;0.15;;
75520;SDS011;64102;48.628;9.002;2023-04-25T05:40:27;2.97;;;0.20;;
75520;SDS011;64102;48.628;9.002;2023-04-25T05:42:52;2.33;;;0.10;;
75520;SDS011;64102;48.628;9.002;2023-04-25T05:45:17;2.03;;;0.17;;
75520;SDS011;64102;48.628;9.002;2023-04-25T05:47:43;3.03;;;0.20;;
75520;SDS011;64102;48.628;9.002;2023-04-25T05:50:08;5.93;;;0.27;;
75520;SDS011;64102;48.628;9.002;2023-04-25T05:52:34;2.72;;;0.30;;
75520;SDS011;64102;48.628;9.002;2023-04-25T05:54:59;1.27;;;0.08;;
75520;SDS011;64102;48.628;9.002;2023-04-25T05:57:25;1.08;;;0.15;;
75520;SDS011;64102;48.628;9.002;2023-04-25T05:59:52;2.78;;;0.20;;
75520;SDS011;64102;48.628;9.002;2023-04-25T06:02:18;2.35;;;0.13;;
75520;SDS011;64102;48.628;9.002;2023-04-25T06:04:45;1.80;;;0.10;;
75520;SDS011;64102;48.628;9.002;2023-04-25T06:07:10;1.43;;;0.10;;
75520;SDS011;64102;48.628;9.002;2023-04-25T06:09:36;3.13;;;0.20;;
75520;SDS011;64102;48.628;9.002;2023-04-25T06:12:01;1.55;;;0.10;;
75520;SDS011;64102;48.628;9.002;2023-04-25T06:14:27;2.87;;;0.13;;
75520;SDS011;64102;48.628;9.002;2023-04-25T06:16:52;2.13;;;0.15;;
75520;SDS011;64102;48.628;9.002;2023-04-25T06:19:17;3.08;;;0.10;;
75520;SDS011;64102;48.628;9.002;2023-04-25T06:21:43;3.53;;;0.10;;
75520;SDS011;64102;48.628;9.002;2023-04-25T06:24:09;3.03;;;0.13;;
75520;SDS011;64102;48.628;9.002;2023-04-25T06:26:34;2.60;;;0.20;;
75520;SDS011;64102;48.628;9.002;2023-04-25T06:29:00;2.50;;;0.10;;
75520;SDS011;64102;48.628;9.002;2023-04-25T06:31:25;4.63;;;0.30;;
75520;SDS011;64102;48.628;9.002;2023-04-25T06:33:50;2.95;;;0.28;;
75520;SDS011;64102;48.628;9.002;2023-04-25T06:36:19;3.58;;;0.40;;
75520;SDS011;64102;48.628;9.002;2023-04-25T06:38:49;2.97;;;0.30;;
75520;SDS011;64102;48.628;9.002;2023-04-25T06:41:15;3.67;;;0.20;;
75520;SDS011;64102;48.628;9.002;2023-04-25T06:43:40;4.00;;;0.27;;
75520;SDS011;64102;48.628;9.002;2023-04-25T06:46:06;5.67;;;0.20;;
75520;SDS011;64102;48.628;9.002;2023-04-25T06:48:31;4.32;;;0.17;;
75520;SDS011;64102;48.628;9.002;2023-04-25T06:50:56;3.03;;;0.30;;
75520;SDS011;64102;48.628;9.002;2023-04-25T06:53:22;2.83;;;0.20;;
75520;SDS011;64102;48.628;9.002;2023-04-25T06:55:47;2.28;;;0.20;;
75520;SDS011;64102;48.628;9.002;2023-04-25T06:58:13;4.00;;;0.20;;
75520;SDS011;64102;48.628;9.002;2023-04-25T07:00:38;3.60;;;0.30;;
75520;SDS011;64102;48.628;9.002;2023-04-25T07:03:03;3.85;;;0.30;;
75520;SDS011;64102;48.628;9.002;2023-04-25T07:05:30;5.97;;;0.30;;
75520;SDS011;64102;48.628;9.002;2023-04-25T07:07:55;3.33;;;0.20;;
75520;SDS011;64102;48.628;9.002;2023-04-25T07:10:20;2.80;;;0.23;;
75520;SDS011;64102;48.628;9.002;2023-04-25T07:12:46;3.67;;;0.43;;
75520;SDS011;64102;48.628;9.002;2023-04-25T07:15:11;4.40;;;0.82;;
75520;SDS011;64102;48.628;9.002;2023-04-25T07:17:37;4.80;;;0.17;;
75520;SDS011;64102;48.628;9.002;2023-04-25T07:20:03;6.85;;;0.30;;
75520;SDS011;64102;48.628;9.002;2023-04-25T07:22:29;4.70;;;0.40;;
75520;SDS011;64102;48.628;9.002;2023-04-25T07:24:54;1.83;;;0.20;;
75520;SDS011;64102;48.628;9.002;2023-04-25T07:27:20;2.58;;;0.28;;
75520;SDS011;64102;48.628;9.002;2023-04-25T07:29:46;3.05;;;0.17;;
75520;SDS011;64102;48.628;9.002;2023-04-25T07:32:11;4.17;;;0.40;;
75520;SDS011;64102;48.628;9.002;2023-04-25T07:34:38;3.70;;;0.30;;
75520;SDS011;64102;48.628;9.002;2023-04-25T07:37:04;3.13;;;0.13;;
75520;SDS011;64102;48.628;9.002;2023-04-25T07:39:30;1.92;;;0.10;;
75520;SDS011;64102;48.628;9.002;2023-04-25T07:41:55;3.85;;;0.25;;
75520;SDS011;64102;48.628;9.002;2023-04-25T07:44:23;2.58;;;0.22;;
75520;SDS011;64102;48.628;9.002;2023-04-25T07:46:48;4.90;;;0.40;;
75520;SDS011;64102;48.628;9.002;2023-04-25T07:49:14;4.25;;;0.40;;
75520;SDS011;64102;48.628;9.002;2023-04-25T07:51:40;4.95;;;0.28;;
75520;SDS011;64102;48.628;9.002;2023-04-25T07:54:06;4.20;;;0.20;;
75520;SDS011;64102;48.628;9.002;2023-04-25T07:56:31;2.17;;;0.10;;
75520;SDS011;64102;48.628;9.002;2023-04-25T07:58:57;4.00;;;0.50;;
75520;SDS011;64102;48.628;9.002;2023-04-25T08:01:22;2.00;;;0.10;;
75520;SDS011;64102;48.628;9.002;2023-04-25T08:03:48;4.20;;;0.40;;
75520;SDS011;64102;48.628;9.002;2023-04-25T08:06:13;5.30;;;0.30;;
75520;SDS011;64102;48.628;9.002;2023-04-25T08:08:38;3.93;;;0.20;;
75520;SDS011;64102;48.628;9.002;2023-04-25T08:11:04;3.00;;;0.20;;
75520;SDS011;64102;48.628;9.002;2023-04-25T08:13:29;2.42;;;0.15;;
75520;SDS011;64102;48.628;9.002;2023-04-25T08:15:54;1.67;;;0.03;;
75520;SDS011;64102;48.628;9.002;2023-04-25T08:18:20;2.90;;;0.10;;
75520;SDS011;64102;48.628;9.002;2023-04-25T08:20:45;2.03;;;0.10;;
75520;SDS011;64102;48.628;9.002;2023-04-25T08:23:11;1.57;;;0.00;;
75520;SDS011;64102;48.628;9.002;2023-04-25T08:25:36;2.10;;;0.10;;
75520;SDS011;64102;48.628;9.002;2023-04-25T08:28:01;1.93;;;0.20;;
75520;SDS011;64102;48.628;9.002;2023-04-25T08:30:28;4.72;;;0.40;;
75520;SDS011;64102;48.628;9.002;2023-04-25T08:32:53;2.58;;;0.15;;
75520;SDS011;64102;48.628;9.002;2023-04-25T08:35:19;2.05;;;0.25;;
75520;SDS011;64102;48.628;9.002;2023-04-25T08:37:45;3.45;;;0.43;;
75520;SDS011;64102;48.628;9.002;2023-04-25T08:40:14;3.50;;;0.20;;
75520;SDS011;64102;48.628;9.002;2023-04-25T08:42:41;2.20;;;0.13;;
75520;SDS011;64102;48.628;9.002;2023-04-25T08:45:07;3.65;;;0.25;;
75520;SDS011;64102;48.628;9.002;2023-04-25T08:47:33;3.17;;;0.35;;
75520;SDS011;64102;48.628;9.002;2023-04-25T08:50:00;4.35;;;0.57;;
75520;SDS011;64102;48.628;9.002;2023-04-25T08:52:27;4.13;;;0.45;;
75520;SDS011;64102;48.628;9.002;2023-04-25T08:54:57;4.90;;;0.60;;
75520;SDS011;64102;48.628;9.002;2023-04-25T08:57:25;6.45;;;0.35;;
75520;SDS011;64102;48.628;9.002;2023-04-25T08:59:51;4.43;;;0.30;;
75520;SDS011;64102;48.628;9.002;2023-04-25T09:02:18;2.78;;;0.20;;
75520;SDS011;64102;48.628;9.002;2023-04-25T09:04:45;3.83;;;0.38;;
75520;SDS011;64102;48.628;9.002;2023-04-25T09:07:11;7.57;;;0.40;;
75520;SDS011;64102;48.628;9.002;2023-04-25T09:09:36;3.75;;;0.20;;
75520;SDS011;64102;48.628;9.002;2023-04-25T09:12:02;3.67;;;0.35;;
75520;SDS011;64102;48.628;9.002;2023-04-25T09:14:27;2.33;;;0.20;;
75520;SDS011;64102;48.628;9.002;2023-04-25T09:19:28;3.00;;;0.20;;
75520;SDS011;64102;48.628;9.002;2023-04-25T09:21:55;4.45;;;0.30;;
75520;SDS011;64102;48.628;9.002;2023-04-25T09:27:11;2.90;;;0.40;;
75520;SDS011;64102;48.628;9.002;2023-04-25T09:29:39;2.22;;;0.20;;
75520;SDS011;64102;48.628;9.002;2023-04-25T09:32:13;3.20;;;0.28;;
75520;SDS011;64102;48.628;9.002;2023-04-25T09:34:39;2.00;;;0.20;;
75520;SDS011;64102;48.628;9.002;2023-04-25T09:37:09;3.33;;;0.10;;
75520;SDS011;64102;48.628;9.002;2023-04-25T09:39:35;1.77;;;0.10;;
75520;SDS011;64102;48.628;9.002;2023-04-25T09:42:02;2.20;;;0.13;;
75520;SDS011;64102;48.628;9.002;2023-04-25T09:44:29;0.90;;;0.10;;
75520;SDS011;64102;48.628;9.002;2023-04-25T09:46:54;1.52;;;0.05;;
75520;SDS011;64102;48.628;9.002;2023-04-25T09:49:20;1.45;;;0.20;;
75520;SDS011;64102;48.628;9.002;2023-04-25T09:51:54;1.00;;;0.00;;
75520;SDS011;64102;48.628;9.002;2023-04-25T09:54:24;0.20;;;0.00;;
75520;SDS011;64102;48.628;9.002;2023-04-25T09:56:51;0.70;;;0.00;;
75520;SDS011;64102;48.628;9.002;2023-04-25T09:59:21;1.25;;;0.00;;
75520;SDS011;64102;48.628;9.002;2023-04-25T10:01:50;2.00;;;0.22;;
75520;SDS011;64102;48.628;9.002;2023-04-25T10:04:22;1.77;;;0.00;;
75520;SDS011;64102;48.628;9.002;2023-04-25T10:06:51;0.85;;;0.08;;
75520;SDS011;64102;48.628;9.002;2023-04-25T10:09:21;1.17;;;0.10;;
75520;SDS011;64102;48.628;9.002;2023-04-25T10:11:50;1.13;;;0.00;;
75520;SDS011;64102;48.628;9.002;2023-04-25T10:14:17;0.85;;;0.00;;
75520;SDS011;64102;48.628;9.002;2023-04-25T10:16:43;0.05;;;0.00;;
75520;SDS011;64102;48.628;9.002;2023-04-25T10:19:10;0.20;;;0.00;;
75520;SDS011;64102;48.628;9.002;2023-04-25T10:21:36;0.50;;;0.00;;
75520;SDS011;64102;48.628;9.002;2023-04-25T10:24:11;0.30;;;0.00;;
75520;SDS011;64102;48.628;9.002;2023-04-25T10:26:37;1.15;;;0.10;;
75520;SDS011;64102;48.628;9.002;2023-04-25T10:29:03;1.65;;;0.00;;
75520;SDS011;64102;48.628;9.002;2023-04-25T10:31:29;0.43;;;0.00;;
75520;SDS011;64102;48.628;9.002;2023-04-25T10:33:55;1.92;;;0.05;;
75520;SDS011;64102;48.628;9.002;2023-04-25T10:36:22;0.80;;;0.00;;
75520;SDS011;64102;48.628;9.002;2023-04-25T10:38:48;0.00;;;0.00;;
75520;SDS011;64102;48.628;9.002;2023-04-25T10:41:17;0.05;;;0.00;;
75520;SDS011;64102;48.628;9.002;2023-04-25T10:43:46;0.43;;;0.00;;
75520;SDS011;64102;48.628;9.002;2023-04-25T10:46:16;0.45;;;0.00;;
75520;SDS011;64102;48.628;9.002;2023-04-25T10:48:54;0.05;;;0.00;;
75520;SDS011;64102;48.628;9.002;2023-04-25T10:51:24;0.10;;;0.00;;
75520;SDS011;64102;48.628;9.002;2023-04-25T10:54:00;0.98;;;0.10;;
75520;SDS011;64102;48.628;9.002;2023-04-25T10:56:30;0.25;;;0.00;;
75520;SDS011;64102;48.628;9.002;2023-04-25T10:59:11;0.10;;;0.00;;
75520;SDS011;64102;48.628;9.002;2023-04-25T11:01:42;0.98;;;0.00;;
75520;SDS011;64102;48.628;9.002;2023-04-25T11:04:30;1.45;;;0.00;;
75520;SDS011;64102;48.628;9.002;2023-04-25T11:09:36;1.00;;;0.00;;
75520;SDS011;64102;48.628;9.002;2023-04-25T11:12:03;0.73;;;0.00;;
75520;SDS011;64102;48.628;9.002;2023-04-25T11:14:30;0.10;;;0.00;;
75520;SDS011;64102;48.628;9.002;2023-04-25T11:16:56;0.20;;;0.00;;
75520;SDS011;64102;48.628;9.002;2023-04-25T11:19:23;3.17;;;0.00;;
75520;SDS011;64102;48.628;9.002;2023-04-25T11:21:49;0.63;;;0.00;;
75520;SDS011;64102;48.628;9.002;2023-04-25T11:24:17;0.80;;;0.00;;
75520;SDS011;64102;48.628;9.002;2023-04-25T11:26:43;2.15;;;0.00;;
75520;SDS011;64102;48.628;9.002;2023-04-25T11:29:12;0.82;;;0.00;;
75520;SDS011;64102;48.628;9.002;2023-04-25T11:31:37;0.63;;;0.00;;
75520;SDS011;64102;48.628;9.002;2023-04-25T11:34:03;1.80;;;0.10;;
75520;SDS011;64102;48.628;9.002;2023-04-25T11:36:28;1.67;;;0.07;;
75520;SDS011;64102;48.628;9.002;2023-04-25T11:38:53;2.03;;;0.00;;
75520;SDS011;64102;48.628;9.002;2023-04-25T11:41:19;0.20;;;0.00;;
75520;SDS011;64102;48.628;9.002;2023-04-25T11:43:45;0.65;;;0.00;;
75520;SDS011;64102;48.628;9.002;2023-04-25T11:46:10;1.33;;;0.00;;
75520;SDS011;64102;48.628;9.002;2023-04-25T11:48:39;0.55;;;0.00;;
75520;SDS011;64102;48.628;9.002;2023-04-25T11:51:06;0.00;;;0.00;;
75520;SDS011;64102;48.628;9.002;2023-04-25T11:53:31;0.80;;;0.00;;
75520;SDS011;64102;48.628;9.002;2023-04-25T11:55:57;0.85;;;0.00;;
75520;SDS011;64102;48.628;9.002;2023-04-25T11:58:22;0.27;;;0.00;;
75520;SDS011;64102;48.628;9.002;2023-04-25T12:00:47;0.60;;;0.00;;
75520;SDS011;64102;48.628;9.002;2023-04-25T12:03:13;1.40;;;0.08;;
75520;SDS011;64102;48.628;9.002;2023-04-25T12:05:38;2.50;;;0.37;;
75520;SDS011;64102;48.628;9.002;2023-04-25T12:08:15;1.52;;;0.10;;
75520;SDS011;64102;48.628;9.002;2023-04-25T12:10:42;3.53;;;0.10;;
75520;SDS011;64102;48.628;9.002;2023-04-25T12:13:19;3.70;;;0.10;;
75520;SDS011;64102;48.628;9.002;2023-04-25T12:18:22;2.65;;;0.20;;
75520;SDS011;64102;48.628;9.002;2023-04-25T12:20:48;3.47;;;0.10;;
75520;SDS011;64102;48.628;9.002;2023-04-25T12:23:14;2.83;;;0.28;;
75520;SDS011;64102;48.628;9.002;2023-04-25T12:25:40;3.72;;;0.20;;
75520;SDS011;64102;48.628;9.002;2023-04-25T12:30:59;3.58;;;0.20;;
75520;SDS011;64102;48.628;9.002;2023-04-25T12:33:27;2.72;;;0.20;;
75520;SDS011;64102;48.628;9.002;2023-04-25T12:36:03;9.32;;;0.40;;
75520;SDS011;64102;48.628;9.002;2023-04-25T12:38:40;5.78;;;0.50;;
75520;SDS011;64102;48.628;9.002;2023-04-25T12:41:07;3.17;;;0.30;;
75520;SDS011;64102;48.628;9.002;2023-04-25T12:43:33;1.70;;;0.50;;
75520;SDS011;64102;48.628;9.002;2023-04-25T12:45:59;2.25;;;0.20;;
75520;SDS011;64102;48.628;9.002;2023-04-25T12:48:24;4.63;;;0.40;;
75520;SDS011;64102;48.628;9.002;2023-04-25T12:50:50;3.13;;;0.20;;
75520;SDS011;64102;48.628;9.002;2023-04-25T12:53:20;1.60;;;0.10;;
75520;SDS011;64102;48.628;9.002;2023-04-25T12:55:47;2.95;;;0.30;;
75520;SDS011;64102;48.628;9.002;2023-04-25T12:58:13;2.70;;;0.10;;
75520;SDS011;64102;48.628;9.002;2023-04-25T13:00:39;2.88;;;0.25;;
75520;SDS011;64102;48.628;9.002;2023-04-25T13:03:04;1.80;;;0.10;;
75520;SDS011;64102;48.628;9.002;2023-04-25T13:05:30;4.45;;;0.25;;
75520;SDS011;64102;48.628;9.002;2023-04-25T13:07:55;4.55;;;0.40;;
75520;SDS011;64102;48.628;9.002;2023-04-25T13:10:21;3.72;;;0.30;;
75520;SDS011;64102;48.628;9.002;2023-04-25T13:12:47;3.88;;;0.30;;
75520;SDS011;64102;48.628;9.002;2023-04-25T13:15:12;3.93;;;0.40;;
75520;SDS011;64102;48.628;9.002;2023-04-25T13:17:38;4.75;;;0.30;;
75520;SDS011;64102;48.628;9.002;2023-04-25T13:20:04;3.25;;;0.20;;
75520;SDS011;64102;48.628;9.002;2023-04-25T13:22:33;3.75;;;0.20;;
75520;SDS011;64102;48.628;9.002;2023-04-25T13:25:01;4.43;;;0.30;;
75520;SDS011;64102;48.628;9.002;2023-04-25T13:27:27;4.00;;;0.30;;
75520;SDS011;64102;48.628;9.002;2023-04-25T13:29:52;4.90;;;0.50;;
75520;SDS011;64102;48.628;9.002;2023-04-25T13:32:18;3.43;;;0.17;;
75520;SDS011;64102;48.628;9.002;2023-04-25T13:34:43;4.23;;;0.33;;
75520;SDS011;64102;48.628;9.002;2023-04-25T13:37:08;4.03;;;0.40;;
75520;SDS011;64102;48.628;9.002;2023-04-25T13:39:34;4.83;;;0.70;;
75520;SDS011;64102;48.628;9.002;2023-04-25T13:41:59;3.90;;;0.20;;
75520;SDS011;64102;48.628;9.002;2023-04-25T13:44:25;4.32;;;0.40;;
75520;SDS011;64102;48.628;9.002;2023-04-25T13:46:50;4.97;;;0.30;;
75520;SDS011;64102;48.628;9.002;2023-04-25T13:49:16;5.03;;;0.40;;
75520;SDS011;64102;48.628;9.002;2023-04-25T13:51:41;3.92;;;0.55;;
75520;SDS011;64102;48.628;9.002;2023-04-25T13:54:07;5.13;;;0.63;;
75520;SDS011;64102;48.628;9.002;2023-04-25T13:56:32;6.13;;;0.40;;
75520;SDS011;64102;48.628;9.002;2023-04-25T13:58:58;4.22;;;0.50;;
75520;SDS011;64102;48.628;9.002;2023-04-25T14:01:23;4.47;;;0.43;;
75520;SDS011;64102;48.628;9.002;2023-04-25T14:03:48;6.07;;;0.60;;
75520;SDS011;64102;48.628;9.002;2023-04-25T14:06:14;5.80;;;0.40;;
75520;SDS011;64102;48.628;9.002;2023-04-25T14:08:46;4.93;;;0.50;;
75520;SDS011;64102;48.628;9.002;2023-04-25T14:11:11;6.18;;;0.50;;
75520;SDS011;64102;48.628;9.002;2023-04-25T14:13:37;3.97;;;0.30;;
75520;SDS011;64102;48.628;9.002;2023-04-25T14:16:02;2.93;;;0.30;;
75520;SDS011;64102;48.628;9.002;2023-04-25T14:18:28;4.03;;;0.32;;
75520;SDS011;64102;48.628;9.002;2023-04-25T14:20:53;4.45;;;0.25;;
75520;SDS011;64102;48.628;9.002;2023-04-25T14:23:18;6.80;;;0.53;;
75520;SDS011;64102;48.628;9.002;2023-04-25T14:25:44;4.93;;;0.30;;
75520;SDS011;64102;48.628;9.002;2023-04-25T14:28:09;5.47;;;0.35;;
75520;SDS011;64102;48.628;9.002;2023-04-25T14:30:35;4.78;;;0.32;;
75520;SDS011;64102;48.628;9.002;2023-04-25T14:33:00;2.75;;;0.30;;
75520;SDS011;64102;48.628;9.002;2023-04-25T14:35:25;5.33;;;0.40;;
75520;SDS011;64102;48.628;9.002;2023-04-25T14:37:51;4.93;;;0.28;;
75520;SDS011;64102;48.628;9.002;2023-04-25T14:40:17;5.45;;;0.40;;
75520;SDS011;64102;48.628;9.002;2023-04-25T14:42:43;4.50;;;0.50;;
75520;SDS011;64102;48.628;9.002;2023-04-25T14:45:08;3.83;;;0.20;;
75520;SDS011;64102;48.628;9.002;2023-04-25T14:47:37;3.47;;;0.30;;
75520;SDS011;64102;48.628;9.002;2023-04-25T14:50:02;3.90;;;0.30;;
75520;SDS011;64102;48.628;9.002;2023-04-25T14:52:29;5.05;;;0.45;;
75520;SDS011;64102;48.628;9.002;2023-04-25T14:54:55;3.70;;;0.20;;
75520;SDS011;64102;48.628;9.002;2023-04-25T14:57:21;3.28;;;0.30;;